Time;durP1;ratioP1;P1;durP2;ratioP2;P2;SDS_P1;SDS_P2;PMS_P1;PMS_P2;Temp;Humidity;BMP_temperature;BMP_pressure;BME280_temperature;BME280_humidity;BME280_pressure;Samples;Min_cycle;Max_cycle;Signal;HPM_P1;HPM_P2
2022/09/24 00:01:53;;;;;;;9.25;8.45;;;;;;;;;;5036729;28;20124;-65
2022/09/24 00:04:19;;;;;;;9.00;8.40;;;;;;;;;;5034340;28;20114;-64
2022/09/24 00:06:46;;;;;;;9.40;8.55;;;;;;;;;;5037546;28;20026;-64
2022/09/24 00:09:15;;;;;;;8.38;7.80;;;;;;;;;;5067379;28;20034;-64
2022/09/24 00:11:44;;;;;;;8.93;8.23;;;;;;;;;;5036625;28;20157;-65
2022/09/24 00:14:10;;;;;;;8.65;8.00;;;;;;;;;;5033678;28;20029;-64
2022/09/24 00:16:35;;;;;;;8.00;7.40;;;;;;;;;;5038966;28;20059;-64
2022/09/24 00:19:02;;;;;;;8.35;7.75;;;;;;;;;;5038537;28;20055;-65
2022/09/24 00:21:30;;;;;;;8.02;7.43;;;;;;;;;;5035235;28;20390;-64
2022/09/24 00:23:58;;;;;;;8.02;7.45;;;;;;;;;;5033453;28;20124;-64
2022/09/24 00:29:09;;;;;;;8.13;7.53;;;;;;;;;;5035229;28;20064;-64
2022/09/24 00:31:35;;;;;;;7.10;6.60;;;;;;;;;;5035696;28;20064;-64
2022/09/24 00:34:00;;;;;;;7.90;7.30;;;;;;;;;;5036749;28;20392;-64
2022/09/24 00:36:26;;;;;;;7.53;7.03;;;;;;;;;;5034050;28;20040;-64
2022/09/24 00:38:54;;;;;;;7.82;7.32;;;;;;;;;;5036233;28;20451;-64
2022/09/24 00:41:23;;;;;;;8.23;7.55;;;;;;;;;;5038403;28;20029;-64
2022/09/24 00:43:49;;;;;;;8.52;7.93;;;;;;;;;;5035979;28;20032;-64
2022/09/24 00:46:21;;;;;;;8.07;7.57;;;;;;;;;;5070793;28;20462;-64
2022/09/24 00:48:49;;;;;;;8.23;7.65;;;;;;;;;;5034865;28;20111;-64
2022/09/24 00:51:19;;;;;;;8.95;8.35;;;;;;;;;;5035277;28;20083;-64
2022/09/24 00:53:47;;;;;;;7.88;7.38;;;;;;;;;;5032880;28;20460;-64
2022/09/24 00:56:14;;;;;;;8.95;8.35;;;;;;;;;;5034372;28;20033;-64
2022/09/24 00:58:43;;;;;;;7.93;7.43;;;;;;;;;;5033853;28;20033;-64
2022/09/24 01:01:09;;;;;;;8.43;7.82;;;;;;;;;;5038743;28;20062;-64
2022/09/24 01:03:41;;;;;;;7.53;7.03;;;;;;;;;;5036258;28;20406;-64
2022/09/24 01:06:10;;;;;;;7.32;6.82;;;;;;;;;;5036370;28;20029;-64
2022/09/24 01:08:35;;;;;;;7.82;7.22;;;;;;;;;;5034959;28;20024;-63
2022/09/24 01:11:38;;;;;;;7.60;7.10;;;;;;;;;;5031957;28;20111;-63
2022/09/24 01:14:15;;;;;;;7.68;7.10;;;;;;;;;;5035983;28;20137;-64
2022/09/24 01:17:10;;;;;;;7.40;6.90;;;;;;;;;;5037344;28;20455;-64
2022/09/24 01:20:18;;;;;;;7.28;6.78;;;;;;;;;;4964008;28;20103;-64
2022/09/24 01:23:15;;;;;;;8.40;7.82;;;;;;;;;;5033482;28;20038;-65
2022/09/24 01:26:02;;;;;;;7.22;6.72;;;;;;;;;;5068998;28;20033;-64
2022/09/24 01:28:51;;;;;;;8.10;7.40;;;;;;;;;;5032422;28;20787;-64
2022/09/24 01:31:32;;;;;;;8.60;8.07;;;;;;;;;;5004831;28;20037;-64
2022/09/24 01:34:04;;;;;;;9.25;8.65;;;;;;;;;;5037918;28;20447;-64
2022/09/24 01:36:32;;;;;;;8.65;8.05;;;;;;;;;;5031378;28;20136;-64
2022/09/24 01:38:59;;;;;;;9.27;8.57;;;;;;;;;;5035176;28;20045;-64
2022/09/24 01:41:25;;;;;;;7.70;7.20;;;;;;;;;;5034345;28;20797;-64
2022/09/24 01:43:51;;;;;;;9.93;9.18;;;;;;;;;;5034719;28;20021;-64
2022/09/24 01:46:18;;;;;;;10.90;10.00;;;;;;;;;;5035078;28;20459;-64
2022/09/24 01:48:44;;;;;;;10.48;9.85;;;;;;;;;;5033596;28;20041;-63
2022/09/24 01:51:16;;;;;;;10.90;10.20;;;;;;;;;;5039592;28;20065;-64
2022/09/24 01:54:02;;;;;;;10.80;10.10;;;;;;;;;;5032050;28;20034;-64
2022/09/24 01:56:43;;;;;;;10.38;9.68;;;;;;;;;;5037596;28;20291;-64
2022/09/24 01:59:15;;;;;;;;;;;;;;;;;;5038813;28;20037;-63
2022/09/24 02:01:55;;;;;;;9.02;8.38;;;;;;;;;;5038716;28;19913;-64
2022/09/24 02:04:23;;;;;;;9.40;8.77;;;;;;;;;;5036383;28;20058;-65
2022/09/24 02:06:55;;;;;;;10.00;9.00;;;;;;;;;;5038087;28;20048;-64
2022/09/24 02:09:39;;;;;;;9.10;8.30;;;;;;;;;;5036309;28;20087;-64
2022/09/24 02:12:17;;;;;;;9.07;8.48;;;;;;;;;;5039536;28;20136;-64
2022/09/24 02:14:50;;;;;;;8.27;7.78;;;;;;;;;;5040680;28;20482;-64
2022/09/24 02:17:16;;;;;;;8.82;8.23;;;;;;;;;;5037761;28;20036;-64
2022/09/24 02:19:43;;;;;;;8.70;8.00;;;;;;;;;;5032957;28;20034;-65
2022/09/24 02:22:11;;;;;;;7.07;6.57;;;;;;;;;;5037031;28;20029;-64
2022/09/24 02:24:40;;;;;;;7.72;7.22;;;;;;;;;;5036520;28;20114;-64
2022/09/24 02:27:05;;;;;;;7.57;7.05;;;;;;;;;;5036469;28;20061;-64
2022/09/24 02:29:30;;;;;;;7.50;7.00;;;;;;;;;;5035451;28;20121;-64
2022/09/24 02:31:57;;;;;;;6.78;6.28;;;;;;;;;;5037472;28;20048;-64
2022/09/24 02:34:28;;;;;;;7.07;6.57;;;;;;;;;;5036067;28;20116;-64
2022/09/24 02:37:01;;;;;;;7.18;6.68;;;;;;;;;;5038990;28;20079;-63
2022/09/24 02:39:26;;;;;;;7.35;6.82;;;;;;;;;;5036224;28;20075;-64
2022/09/24 02:41:53;;;;;;;8.15;7.55;;;;;;;;;;5070228;28;20064;-62
2022/09/24 02:44:19;;;;;;;6.90;6.40;;;;;;;;;;5037177;28;20056;-62
2022/09/24 02:46:45;;;;;;;7.72;7.13;;;;;;;;;;5039391;28;20040;-63
2022/09/24 02:49:13;;;;;;;8.68;8.07;;;;;;;;;;5041058;28;20087;-62
2022/09/24 02:51:39;;;;;;;7.82;7.22;;;;;;;;;;5034827;28;20572;-63
2022/09/24 02:54:06;;;;;;;7.30;6.78;;;;;;;;;;5035864;28;20045;-63
2022/09/24 02:56:32;;;;;;;8.50;7.80;;;;;;;;;;5035916;28;20075;-63
2022/09/24 02:58:58;;;;;;;10.20;7.90;;;;;;;;;;5037755;28;20045;-64
2022/09/24 03:01:23;;;;;;;6.90;6.40;;;;;;;;;;5036902;28;20132;-63
2022/09/24 03:03:50;;;;;;;7.70;7.10;;;;;;;;;;5033967;28;20283;-63
2022/09/24 03:06:15;;;;;;;9.20;8.50;;;;;;;;;;5033816;28;20077;-64
2022/09/24 03:08:41;;;;;;;8.35;7.75;;;;;;;;;;5037915;28;20439;-63
2022/09/24 03:11:07;;;;;;;8.02;7.43;;;;;;;;;;5038355;28;20411;-63
2022/09/24 03:13:33;;;;;;;8.10;7.50;;;;;;;;;;5031772;28;20434;-63
2022/09/24 03:15:58;;;;;;;8.15;7.65;;;;;;;;;;5034302;28;20037;-63
2022/09/24 03:18:24;;;;;;;8.90;8.30;;;;;;;;;;5035146;28;20033;-63
2022/09/24 03:20:56;;;;;;;7.55;7.05;;;;;;;;;;5036844;28;20110;-63
2022/09/24 03:23:21;;;;;;;8.23;7.70;;;;;;;;;;5037786;28;20029;-64
2022/09/24 03:25:47;;;;;;;7.55;7.05;;;;;;;;;;5036829;28;20033;-64
2022/09/24 03:28:12;;;;;;;8.27;7.68;;;;;;;;;;5037989;28;20029;-64
2022/09/24 03:33:22;;;;;;;7.97;7.47;;;;;;;;;;5037043;28;20064;-64
2022/09/24 03:35:47;;;;;;;8.38;7.78;;;;;;;;;;5037359;28;20414;-65
2022/09/24 03:38:12;;;;;;;7.28;6.78;;;;;;;;;;5035266;28;20182;-65
2022/09/24 03:40:38;;;;;;;8.38;7.78;;;;;;;;;;5067915;28;20124;-65
2022/09/24 03:43:03;;;;;;;8.27;7.68;;;;;;;;;;5033446;28;20112;-64
2022/09/24 03:45:28;;;;;;;8.60;8.00;;;;;;;;;;5035123;28;20029;-65
2022/09/24 03:47:54;;;;;;;8.52;7.93;;;;;;;;;;5035485;28;20487;-65
2022/09/24 03:50:19;;;;;;;8.38;7.88;;;;;;;;;;5037643;28;20029;-62
2022/09/24 03:52:45;;;;;;;10.95;9.93;;;;;;;;;;5036786;28;20390;-63
2022/09/24 03:55:10;;;;;;;10.15;9.45;;;;;;;;;;5036395;28;20283;-62
2022/09/24 03:57:35;;;;;;;10.10;9.45;;;;;;;;;;5035877;28;20451;-62
2022/09/24 04:00:01;;;;;;;8.98;8.38;;;;;;;;;;5034063;28;20040;-61
2022/09/24 04:02:26;;;;;;;9.00;8.40;;;;;;;;;;5035757;28;20033;-62
2022/09/24 04:04:51;;;;;;;9.18;8.57;;;;;;;;;;5038255;28;20033;-61
2022/09/24 04:07:17;;;;;;;10.27;9.57;;;;;;;;;;5037487;28;20674;-64
2022/09/24 04:09:42;;;;;;;7.80;7.30;;;;;;;;;;5037717;28;20360;-64
2022/09/24 04:12:08;;;;;;;7.32;6.82;;;;;;;;;;5035525;28;20522;-64
2022/09/24 04:14:33;;;;;;;8.00;7.50;;;;;;;;;;5037211;28;20426;-64
2022/09/24 04:16:58;;;;;;;7.55;7.05;;;;;;;;;;5033121;28;20048;-64
2022/09/24 04:19:25;;;;;;;9.50;8.80;;;;;;;;;;5033363;28;20447;-64
2022/09/24 04:21:51;;;;;;;8.00;7.40;;;;;;;;;;5038267;28;20522;-64
2022/09/24 04:24:17;;;;;;;7.38;6.88;;;;;;;;;;5036589;28;20032;-63
2022/09/24 04:26:42;;;;;;;8.23;7.63;;;;;;;;;;5036696;28;20036;-62
2022/09/24 04:29:08;;;;;;;7.60;7.10;;;;;;;;;;5035263;28;20053;-63
2022/09/24 04:31:33;;;;;;;7.15;6.65;;;;;;;;;;5035282;28;20054;-63
2022/09/24 04:33:59;;;;;;;7.18;6.68;;;;;;;;;;5034363;28;20067;-62
2022/09/24 04:36:24;;;;;;;7.88;7.30;;;;;;;;;;5035196;28;20033;-63
2022/09/24 04:38:49;;;;;;;7.50;6.95;;;;;;;;;;5037896;28;20331;-64
2022/09/24 04:41:15;;;;;;;9.23;8.63;;;;;;;;;;5033696;28;20033;-62
2022/09/24 04:43:41;;;;;;;8.75;8.15;;;;;;;;;;5031441;28;20082;-62
2022/09/24 04:46:08;;;;;;;8.57;8.02;;;;;;;;;;5033971;28;20061;-62
2022/09/24 04:48:37;;;;;;;8.95;8.35;;;;;;;;;;5037800;28;20028;-64
2022/09/24 04:51:06;;;;;;;10.50;9.80;;;;;;;;;;5032067;28;20037;-64
2022/09/24 04:53:32;;;;;;;9.88;9.27;;;;;;;;;;5036713;28;20064;-64
2022/09/24 04:55:58;;;;;;;10.93;10.13;;;;;;;;;;5033751;28;20040;-65
2022/09/24 04:58:24;;;;;;;11.38;10.68;;;;;;;;;;5034052;28;20040;-64
2022/09/24 05:00:50;;;;;;;12.50;11.18;;;;;;;;;;5037368;28;20021;-64
2022/09/24 05:03:15;;;;;;;11.15;10.35;;;;;;;;;;5039721;28;20097;-64
2022/09/24 05:05:41;;;;;;;11.30;10.60;;;;;;;;;;5037021;28;20029;-63
2022/09/24 05:08:06;;;;;;;12.60;11.80;;;;;;;;;;5033277;28;20418;-63
2022/09/24 05:10:32;;;;;;;12.48;11.73;;;;;;;;;;5034877;28;20603;-62
2022/09/24 05:12:58;;;;;;;9.77;9.18;;;;;;;;;;5033205;28;20463;-64
2022/09/24 05:15:23;;;;;;;11.32;10.57;;;;;;;;;;5036362;28;20056;-63
2022/09/24 05:17:48;;;;;;;10.30;9.60;;;;;;;;;;5032354;28;20061;-65
2022/09/24 05:20:15;;;;;;;9.50;8.90;;;;;;;;;;5035659;28;20146;-64
2022/09/24 05:22:42;;;;;;;10.75;10.00;;;;;;;;;;5034165;28;20036;-64
2022/09/24 05:25:08;;;;;;;10.00;9.40;;;;;;;;;;5035389;28;20469;-64
2022/09/24 05:27:34;;;;;;;9.43;8.60;;;;;;;;;;5034053;28;20025;-65
2022/09/24 05:30:00;;;;;;;10.75;9.98;;;;;;;;;;5071957;28;20033;-64
2022/09/24 05:32:26;;;;;;;10.15;9.55;;;;;;;;;;5056492;28;20025;-63
2022/09/24 05:34:52;;;;;;;9.02;8.43;;;;;;;;;;5037657;28;20166;-63
2022/09/24 05:37:18;;;;;;;10.68;10.02;;;;;;;;;;5037235;28;20487;-63
2022/09/24 05:39:43;;;;;;;11.43;10.73;;;;;;;;;;5039885;28;20033;-63
2022/09/24 05:42:14;;;;;;;9.63;9.02;;;;;;;;;;5039098;28;20033;-63
2022/09/24 05:44:40;;;;;;;;;;;;;;;;;;5036429;28;20130;-63
2022/09/24 05:47:05;;;;;;;8.80;8.20;;;;;;;;;;5039988;28;19916;-64
2022/09/24 05:49:30;;;;;;;9.85;9.25;;;;;;;;;;5037620;28;20421;-63
2022/09/24 05:51:56;;;;;;;9.75;9.13;;;;;;;;;;5035682;28;20043;-64
2022/09/24 05:54:22;;;;;;;9.68;9.07;;;;;;;;;;5036702;28;20033;-63
2022/09/24 05:56:47;;;;;;;9.98;9.38;;;;;;;;;;5035174;28;20033;-63
2022/09/24 05:59:13;;;;;;;11.30;10.50;;;;;;;;;;5039089;28;20375;-64
2022/09/24 06:01:38;;;;;;;11.32;10.63;;;;;;;;;;5037840;28;20178;-64
2022/09/24 06:04:03;;;;;;;11.02;10.32;;;;;;;;;;5035551;28;20033;-63
2022/09/24 06:06:29;;;;;;;12.10;11.40;;;;;;;;;;5038239;28;20025;-65
2022/09/24 06:08:54;;;;;;;12.98;12.18;;;;;;;;;;5040628;28;20088;-63
2022/09/24 06:11:21;;;;;;;12.02;11.23;;;;;;;;;;5039376;28;20060;-63
2022/09/24 06:13:47;;;;;;;10.75;10.05;;;;;;;;;;5040984;28;20116;-63
2022/09/24 06:16:12;;;;;;;11.82;11.13;;;;;;;;;;5035663;28;20655;-62
2022/09/24 06:18:40;;;;;;;11.88;11.07;;;;;;;;;;5038333;28;20108;-63
2022/09/24 06:21:14;;;;;;;10.55;9.85;;;;;;;;;;5040940;28;20336;-63
2022/09/24 06:23:40;;;;;;;11.18;10.45;;;;;;;;;;5038254;28;20120;-63
2022/09/24 06:26:09;;;;;;;11.90;11.10;;;;;;;;;;5034926;28;20052;-63
2022/09/24 06:28:36;;;;;;;9.90;9.20;;;;;;;;;;5035990;28;20422;-64
2022/09/24 06:31:02;;;;;;;10.15;9.45;;;;;;;;;;5037732;28;20103;-64
2022/09/24 06:33:29;;;;;;;10.82;9.95;;;;;;;;;;5037858;28;20021;-64
2022/09/24 06:35:58;;;;;;;8.98;8.38;;;;;;;;;;5040685;28;20059;-63
2022/09/24 06:38:23;;;;;;;9.73;9.13;;;;;;;;;;5036985;28;20124;-64
2022/09/24 06:40:48;;;;;;;9.70;9.07;;;;;;;;;;5038650;28;20120;-64
2022/09/24 06:43:14;;;;;;;10.00;9.30;;;;;;;;;;5050364;28;20037;-63
2022/09/24 06:45:41;;;;;;;12.48;11.60;;;;;;;;;;5035588;28;20036;-63
2022/09/24 06:48:09;;;;;;;12.40;11.35;;;;;;;;;;5035480;28;20095;-62
2022/09/24 06:50:37;;;;;;;10.27;9.57;;;;;;;;;;5038212;28;20116;-64
2022/09/24 06:53:04;;;;;;;10.30;9.25;;;;;;;;;;5037685;28;20037;-62
2022/09/24 06:55:29;;;;;;;10.18;9.48;;;;;;;;;;5037699;28;20064;-62
2022/09/24 06:58:10;;;;;;;9.40;8.32;;;;;;;;;;5036781;28;20087;-62
2022/09/24 07:00:37;;;;;;;7.70;7.20;;;;;;;;;;5037210;28;20035;-61
2022/09/24 07:03:03;;;;;;;10.32;8.98;;;;;;;;;;5042136;28;20212;-63
2022/09/24 07:05:29;;;;;;;8.20;7.60;;;;;;;;;;5036118;28;20430;-62
2022/09/24 07:07:54;;;;;;;8.20;7.60;;;;;;;;;;5034797;28;20025;-62
2022/09/24 07:10:20;;;;;;;7.60;7.10;;;;;;;;;;5037592;28;20029;-63
2022/09/24 07:12:46;;;;;;;7.97;7.38;;;;;;;;;;5035998;28;20029;-62
2022/09/24 07:15:11;;;;;;;7.78;7.28;;;;;;;;;;5037139;28;20037;-62
2022/09/24 07:17:36;;;;;;;8.65;7.95;;;;;;;;;;5038434;28;20020;-63
2022/09/24 07:20:03;;;;;;;8.68;8.07;;;;;;;;;;5038482;28;20300;-62
2022/09/24 07:22:29;;;;;;;7.43;6.93;;;;;;;;;;5037931;28;20414;-62
2022/09/24 07:24:54;;;;;;;7.97;7.38;;;;;;;;;;5070429;28;20043;-63
2022/09/24 07:27:22;;;;;;;7.85;7.25;;;;;;;;;;5036772;28;20454;-62
2022/09/24 07:29:48;;;;;;;7.30;6.80;;;;;;;;;;5037756;28;20157;-62
2022/09/24 07:32:16;;;;;;;8.77;8.05;;;;;;;;;;5039315;28;20138;-63
2022/09/24 07:34:41;;;;;;;10.23;9.32;;;;;;;;;;5041112;28;20047;-62
2022/09/24 07:37:07;;;;;;;9.43;8.63;;;;;;;;;;5041684;28;20029;-62
2022/09/24 07:39:32;;;;;;;9.43;8.68;;;;;;;;;;5044157;28;20033;-62
2022/09/24 07:42:01;;;;;;;9.23;8.35;;;;;;;;;;5073572;28;20029;-63
2022/09/24 07:44:27;;;;;;;9.98;9.30;;;;;;;;;;5040037;28;20033;-63
2022/09/24 07:46:53;;;;;;;9.35;8.65;;;;;;;;;;5038267;28;20036;-62
2022/09/24 07:49:18;;;;;;;9.50;8.65;;;;;;;;;;5040777;28;20461;-62
2022/09/24 07:51:44;;;;;;;9.07;8.48;;;;;;;;;;5040001;28;20044;-63
2022/09/24 07:54:10;;;;;;;10.50;9.80;;;;;;;;;;5044133;28;20044;-63
2022/09/24 07:56:36;;;;;;;9.65;9.05;;;;;;;;;;5036271;28;20029;-66
2022/09/24 07:59:01;;;;;;;11.55;10.85;;;;;;;;;;5037191;28;20044;-66
2022/09/24 08:01:27;;;;;;;9.90;9.23;;;;;;;;;;5038386;28;20128;-67
2022/09/24 08:03:52;;;;;;;11.50;10.63;;;;;;;;;;5038272;28;20025;-66
2022/09/24 08:06:21;;;;;;;10.65;9.95;;;;;;;;;;5034583;28;20041;-66
2022/09/24 08:08:51;;;;;;;12.70;11.80;;;;;;;;;;5044648;28;20033;-65
2022/09/24 08:11:18;;;;;;;11.63;10.88;;;;;;;;;;5040485;28;20087;-66
2022/09/24 08:13:44;;;;;;;11.30;10.50;;;;;;;;;;5041050;28;20064;-65
2022/09/24 08:16:10;;;;;;;11.68;10.77;;;;;;;;;;5039122;28;20566;-65
2022/09/24 08:18:35;;;;;;;11.38;10.57;;;;;;;;;;5039348;28;20128;-66
2022/09/24 08:21:05;;;;;;;11.07;10.38;;;;;;;;;;5035596;28;20505;-67
2022/09/24 08:23:32;;;;;;;11.23;10.43;;;;;;;;;;5035585;28;20348;-66
2022/09/24 08:25:58;;;;;;;10.63;9.93;;;;;;;;;;5039173;28;20762;-66
2022/09/24 08:28:24;;;;;;;12.63;11.82;;;;;;;;;;5036104;28;20425;-65
2022/09/24 08:30:49;;;;;;;11.00;10.10;;;;;;;;;;5037272;28;20032;-68
2022/09/24 08:33:15;;;;;;;11.77;10.60;;;;;;;;;;5035876;28;20645;-67
2022/09/24 08:35:40;;;;;;;10.10;9.30;;;;;;;;;;5068858;28;20055;-65
2022/09/24 08:38:07;;;;;;;8.75;8.15;;;;;;;;;;5020137;28;20045;-67
2022/09/24 08:40:51;;;;;;;9.60;8.90;;;;;;;;;;5033852;28;20253;-66
2022/09/24 08:43:47;;;;;;;10.23;9.52;;;;;;;;;;5037459;28;20080;-68
2022/09/24 08:49:05;;;;;;;8.57;7.97;;;;;;;;;;5033158;28;20169;-66
2022/09/24 08:51:37;;;;;;;8.00;7.30;;;;;;;;;;5034416;28;20102;-67
2022/09/24 08:54:10;;;;;;;9.50;8.80;;;;;;;;;;5035842;28;20127;-66
2022/09/24 08:56:39;;;;;;;8.98;8.35;;;;;;;;;;5037001;28;20029;-66
2022/09/24 08:59:14;;;;;;;8.27;7.60;;;;;;;;;;5034945;28;20083;-66
2022/09/24 09:01:55;;;;;;;12.20;7.80;;;;;;;;;;5033664;28;20021;-66
2022/09/24 09:04:29;;;;;;;;;;;;;;;;;;5034729;28;20033;-62
2022/09/24 09:07:09;;;;;;;8.60;8.00;;;;;;;;;;5034126;28;19912;-63
2022/09/24 09:09:48;;;;;;;8.65;7.85;;;;;;;;;;5038452;28;20068;-63
2022/09/24 09:12:24;;;;;;;8.40;7.80;;;;;;;;;;5032720;28;20045;-63
2022/09/24 09:14:57;;;;;;;9.18;8.48;;;;;;;;;;5029733;28;20083;-63
2022/09/24 09:17:41;;;;;;;8.13;7.53;;;;;;;;;;5035501;28;20497;-63
2022/09/24 09:20:13;;;;;;;8.00;7.40;;;;;;;;;;5035975;28;20047;-63
2022/09/24 09:22:44;;;;;;;8.00;7.40;;;;;;;;;;5037385;28;20030;-62
2022/09/24 09:25:21;;;;;;;7.88;7.28;;;;;;;;;;5032693;28;20467;-63
2022/09/24 09:27:50;;;;;;;8.57;7.88;;;;;;;;;;5033890;28;20051;-62
2022/09/24 09:30:18;;;;;;;7.90;7.35;;;;;;;;;;5034324;28;20099;-62
2022/09/24 09:33:14;;;;;;;7.80;7.10;;;;;;;;;;5035704;28;20229;-62
2022/09/24 09:35:45;;;;;;;8.80;8.20;;;;;;;;;;5036812;28;20029;-62
2022/09/24 09:38:46;;;;;;;7.47;6.88;;;;;;;;;;5034771;28;20040;-64
2022/09/24 09:41:23;;;;;;;7.75;7.20;;;;;;;;;;5027193;28;20055;-63
2022/09/24 09:43:48;;;;;;;9.32;8.57;;;;;;;;;;5033155;28;20387;-63
2022/09/24 09:46:30;;;;;;;8.73;7.93;;;;;;;;;;5067530;28;20029;-62
2022/09/24 09:49:01;;;;;;;8.40;7.70;;;;;;;;;;5033370;28;20504;-63
2022/09/24 09:51:33;;;;;;;9.07;8.38;;;;;;;;;;5035833;28;20036;-62
2022/09/24 09:54:00;;;;;;;8.55;7.95;;;;;;;;;;5032039;28;20021;-62
2022/09/24 09:56:33;;;;;;;8.60;7.95;;;;;;;;;;5034015;28;20041;-62
2022/09/24 09:59:10;;;;;;;8.90;8.18;;;;;;;;;;5035757;28;20390;-62
2022/09/24 10:01:41;;;;;;;10.52;9.77;;;;;;;;;;5032723;28;20112;-62
2022/09/24 10:04:29;;;;;;;8.60;8.00;;;;;;;;;;5036935;28;20025;-63
2022/09/24 10:07:08;;;;;;;10.20;9.50;;;;;;;;;;5036586;28;20261;-63
2022/09/24 10:09:34;;;;;;;10.70;10.00;;;;;;;;;;5033486;28;20038;-63
2022/09/24 10:12:22;;;;;;;12.50;11.73;;;;;;;;;;5036617;28;20037;-63
2022/09/24 10:15:14;;;;;;;13.43;12.43;;;;;;;;;;5033915;28;20056;-63
2022/09/24 10:17:41;;;;;;;15.02;14.07;;;;;;;;;;5039831;28;20332;-63
2022/09/24 10:20:20;;;;;;;18.73;17.52;;;;;;;;;;5039613;28;20462;-63
2022/09/24 10:22:51;;;;;;;16.40;15.43;;;;;;;;;;5039464;28;20351;-63
2022/09/24 10:25:27;;;;;;;21.40;20.20;;;;;;;;;;5038496;28;20036;-62
2022/09/24 10:30:32;;;;;;;23.17;21.88;;;;;;;;;;5044991;28;20143;-63
2022/09/24 10:30:50;;;;;;;24.83;23.42;;;;;;;;;;5040038;28;20451;-63
2022/09/24 10:33:15;;;;;;;24.35;23.00;;;;;;;;;;5035466;28;20072;-63
2022/09/24 10:35:41;;;;;;;28.50;26.85;;;;;;;;;;5037650;28;20057;-62
2022/09/24 10:38:33;;;;;;;29.17;27.52;;;;;;;;;;5036214;28;20452;-62
2022/09/24 10:40:59;;;;;;;29.15;27.52;;;;;;;;;;5033174;28;20041;-62
2022/09/24 10:43:24;;;;;;;26.10;24.60;;;;;;;;;;5034526;28;20074;-63
2022/09/24 10:46:00;;;;;;;26.00;24.50;;;;;;;;;;5036310;28;20479;-63
2022/09/24 10:48:31;;;;;;;36.75;34.45;;;;;;;;;;5034320;28;20141;-62
2022/09/24 10:50:59;;;;;;;33.75;31.90;;;;;;;;;;5036161;28;20398;-62
2022/09/24 10:53:38;;;;;;;23.70;22.35;;;;;;;;;;5036977;28;20363;-65
2022/09/24 10:56:18;;;;;;;26.08;24.63;;;;;;;;;;5039246;28;20057;-66
2022/09/24 10:58:52;;;;;;;52.10;49.38;;;;;;;;;;5039544;28;20052;-65
2022/09/24 11:01:37;;;;;;;61.95;58.83;;;;;;;;;;5039943;28;20079;-65
2022/09/24 11:04:19;;;;;;;34.30;32.33;;;;;;;;;;5037964;28;20040;-65
2022/09/24 11:07:23;;;;;;;24.17;22.77;;;;;;;;;;5040460;28;20044;-65
2022/09/24 11:09:54;;;;;;;36.88;34.83;;;;;;;;;;5035581;28;20048;-66
2022/09/24 11:12:50;;;;;;;26.48;25.02;;;;;;;;;;5037584;28;20592;-66
2022/09/24 11:15:42;;;;;;;40.15;37.70;;;;;;;;;;5039000;28;20033;-65
2022/09/24 11:18:44;;;;;;;35.15;33.28;;;;;;;;;;5039881;28;20420;-66
2022/09/24 11:21:38;;;;;;;26.10;24.63;;;;;;;;;;5033448;28;20032;-65
2022/09/24 11:24:41;;;;;;;24.02;22.63;;;;;;;;;;5036771;28;20359;-65
2022/09/24 11:27:28;;;;;;;21.85;20.60;;;;;;;;;;5038201;28;20036;-64
2022/09/24 11:30:12;;;;;;;26.55;25.10;;;;;;;;;;5038926;28;20040;-65
2022/09/24 11:33:16;;;;;;;63.80;60.53;;;;;;;;;;5037462;28;20108;-65
2022/09/24 11:36:03;;;;;;;70.80;67.03;;;;;;;;;;5036991;28;20041;-65
2022/09/24 11:38:40;;;;;;;67.93;64.47;;;;;;;;;;5041157;28;20444;-66
2022/09/24 11:41:25;;;;;;;40.60;38.53;;;;;;;;;;5040992;28;20037;-65
2022/09/24 11:44:21;;;;;;;57.65;54.53;;;;;;;;;;5034367;28;20305;-65
2022/09/24 11:47:25;;;;;;;65.40;61.97;;;;;;;;;;5038745;28;20035;-66
2022/09/24 11:49:53;;;;;;;60.28;56.47;;;;;;;;;;5057155;28;20040;-67
2022/09/24 11:52:37;;;;;;;65.10;61.75;;;;;;;;;;5040692;28;20048;-67
2022/09/24 11:55:08;;;;;;;60.35;57.20;;;;;;;;;;5036700;28;20040;-67
2022/09/24 11:57:40;;;;;;;69.47;65.97;;;;;;;;;;5035437;28;20040;-65
2022/09/24 12:00:13;;;;;;;46.90;44.53;;;;;;;;;;5035275;28;20060;-66
2022/09/24 12:02:57;;;;;;;57.55;54.60;;;;;;;;;;5038676;28;20487;-67
2022/09/24 12:05:50;;;;;;;62.42;59.25;;;;;;;;;;5036179;28;20037;-66
2022/09/24 12:08:17;;;;;;;71.57;67.95;;;;;;;;;;5036863;28;20076;-67
2022/09/24 12:10:51;;;;;;;71.70;68.10;;;;;;;;;;5036255;28;20083;-67
2022/09/24 12:13:44;;;;;;;59.03;56.05;;;;;;;;;;5038911;28;20180;-67
2022/09/24 12:16:25;;;;;;;65.03;61.80;;;;;;;;;;5036444;28;20213;-68
2022/09/24 12:18:55;;;;;;;;;;;;;;;;;;5033391;28;20333;-67
2022/09/24 12:21:28;;;;;;;44.63;42.35;;;;;;;;;;5038194;28;20258;-65
2022/09/24 12:24:07;;;;;;;73.50;69.70;;;;;;;;;;5042946;28;20048;-64
2022/09/24 12:26:36;;;;;;;70.97;67.38;;;;;;;;;;5037389;28;20033;-63
2022/09/24 12:32:53;;;;;;;70.07;66.53;;;;;;;;;;5067036;28;20025;-64
2022/09/24 12:35:47;;;;;;;46.03;43.67;;;;;;;;;;5011972;28;20316;-63
2022/09/24 12:38:28;;;;;;;63.33;60.10;;;;;;;;;;5070910;28;20056;-63
2022/09/24 12:41:04;;;;;;;71.32;67.75;;;;;;;;;;5036929;28;20041;-63
2022/09/24 12:44:02;;;;;;;72.25;68.65;;;;;;;;;;5033703;28;20351;-63
2022/09/24 12:46:34;;;;;;;64.10;60.65;;;;;;;;;;5009614;28;20045;-63
2022/09/24 12:49:00;;;;;;;74.90;71.18;;;;;;;;;;5036621;28;20692;-62
2022/09/24 12:51:34;;;;;;;77.10;73.25;;;;;;;;;;5037008;28;20502;-63
2022/09/24 12:54:06;;;;;;;65.80;62.50;;;;;;;;;;5036277;28;20048;-65
2022/09/24 12:56:33;;;;;;;75.05;71.25;;;;;;;;;;5036854;28;20033;-64
2022/09/24 12:58:58;;;;;;;76.93;73.07;;;;;;;;;;5037390;28;20045;-64
2022/09/24 13:01:23;;;;;;;72.78;69.15;;;;;;;;;;5040101;28;20036;-64
2022/09/24 13:04:04;;;;;;;90.05;85.57;;;;;;;;;;5038167;28;20025;-64
2022/09/24 13:06:36;;;;;;;73.88;70.20;;;;;;;;;;5034066;28;20048;-64
2022/09/24 13:09:21;;;;;;;65.63;62.30;;;;;;;;;;5033719;28;20021;-65
2022/09/24 13:11:47;;;;;;;72.25;68.68;;;;;;;;;;5038791;28;20052;-67
2022/09/24 13:14:12;;;;;;;74.82;71.03;;;;;;;;;;5036550;28;20033;-68
2022/09/24 13:16:39;;;;;;;76.10;72.30;;;;;;;;;;5035592;28;20113;-67
2022/09/24 13:19:24;;;;;;;73.72;69.93;;;;;;;;;;5037214;28;20055;-66
2022/09/24 13:21:56;;;;;;;66.72;63.38;;;;;;;;;;5032835;28;20081;-66
2022/09/24 13:24:30;;;;;;;62.60;59.40;;;;;;;;;;5042067;28;20538;-66
2022/09/24 13:27:20;;;;;;;80.57;76.53;;;;;;;;;;5035424;28;20029;-67
2022/09/24 13:29:47;;;;;;;;;;;;;;;;;;5034890;28;20057;-66
2022/09/24 13:32:18;;;;;;;55.42;52.63;;;;;;;;;;5040099;28;19952;-66
2022/09/24 13:34:46;;;;;;;57.50;54.58;;;;;;;;;;5033683;28;20025;-66
2022/09/24 13:37:25;;;;;;;80.32;76.32;;;;;;;;;;5052016;28;20515;-68
2022/09/24 13:40:19;;;;;;;78.53;74.63;;;;;;;;;;5032285;28;20032;-67
2022/09/24 13:42:50;;;;;;;63.40;60.22;;;;;;;;;;5032214;28;20049;-66
2022/09/24 13:45:23;;;;;;;74.25;70.50;;;;;;;;;;5035627;28;20029;-67
2022/09/24 13:48:02;;;;;;;60.40;57.25;;;;;;;;;;5039113;28;20051;-67
2022/09/24 13:50:33;;;;;;;61.30;58.22;;;;;;;;;;5041376;28;20750;-64
2022/09/24 13:53:25;;;;;;;69.82;66.32;;;;;;;;;;5036758;28;20395;-66
2022/09/24 13:55:53;;;;;;;66.95;63.55;;;;;;;;;;5041289;28;20033;-67
2022/09/24 13:58:37;;;;;;;83.20;79.13;;;;;;;;;;5039457;28;20067;-67
2022/09/24 14:01:23;;;;;;;84.55;80.22;;;;;;;;;;5038951;28;20095;-66
2022/09/24 14:03:56;;;;;;;85.55;81.25;;;;;;;;;;5042546;28;20033;-66
2022/09/24 14:06:42;;;;;;;79.05;75.13;;;;;;;;;;5035758;28;20055;-65
2022/09/24 14:09:26;;;;;;;67.13;63.65;;;;;;;;;;5039640;28;20068;-66
2022/09/24 14:11:57;;;;;;;60.58;57.42;;;;;;;;;;5038371;28;20037;-65
2022/09/24 14:14:25;;;;;;;35.92;34.03;;;;;;;;;;5038740;28;20041;-65
2022/09/24 14:16:54;;;;;;;76.03;72.22;;;;;;;;;;5043702;28;20122;-65
2022/09/24 14:19:22;;;;;;;81.55;77.50;;;;;;;;;;5039650;28;20040;-64
2022/09/24 14:21:57;;;;;;;83.95;79.80;;;;;;;;;;5038355;28;20040;-65
2022/09/24 14:25:14;;;;;;;65.50;62.10;;;;;;;;;;5039081;28;20099;-65
2022/09/24 14:27:43;;;;;;;29.42;27.52;;;;;;;;;;5034818;28;20491;-65
2022/09/24 14:30:27;;;;;;;53.28;50.58;;;;;;;;;;5039318;28;20045;-65
2022/09/24 14:32:56;;;;;;;36.75;34.80;;;;;;;;;;5039055;28;20025;-65
2022/09/24 14:35:32;;;;;;;35.40;33.58;;;;;;;;;;5038229;28;20028;-65
2022/09/24 14:38:07;;;;;;;41.85;39.72;;;;;;;;;;5040780;28;20056;-65
2022/09/24 14:40:42;;;;;;;39.83;37.70;;;;;;;;;;5037298;28;20475;-66
2022/09/24 14:43:30;;;;;;;36.45;34.50;;;;;;;;;;5040292;28;20029;-67
2022/09/24 14:46:05;;;;;;;68.05;64.63;;;;;;;;;;5041040;28;20026;-67
2022/09/24 14:48:33;;;;;;;60.53;57.47;;;;;;;;;;5039009;28;20029;-67
2022/09/24 14:50:59;;;;;;;50.33;47.78;;;;;;;;;;5036817;28;20039;-67
2022/09/24 14:53:34;;;;;;;43.35;41.00;;;;;;;;;;5037258;28;20567;-66
2022/09/24 14:56:17;;;;;;;38.80;36.78;;;;;;;;;;5039034;28;20043;-66
2022/09/24 14:58:42;;;;;;;36.22;34.38;;;;;;;;;;5040255;28;20064;-67
2022/09/24 15:01:16;;;;;;;61.88;58.75;;;;;;;;;;5038855;28;20068;-67
2022/09/24 15:03:46;;;;;;;34.80;32.97;;;;;;;;;;5038289;28;20453;-67
2022/09/24 15:06:20;;;;;;;;;;;;;;;;;;5039475;28;20620;-67
2022/09/24 15:08:59;;;;;;;25.67;24.27;;;;;;;;;;5038560;28;19920;-67
2022/09/24 15:11:27;;;;;;;25.55;24.15;;;;;;;;;;5039548;28;20032;-67
2022/09/24 15:14:18;;;;;;;28.52;26.92;;;;;;;;;;5039103;28;20191;-67